Time;durP1;ratioP1;P1;durP2;ratioP2;P2;SDS_P1;SDS_P2;PMS_P1;PMS_P2;Temp;Humidity;BMP_temperature;BMP_pressure;BME280_temperature;BME280_humidity;BME280_pressure;Samples;Min_cycle;Max_cycle;Signal;HPM_P1;HPM_P2
2024/03/24 00:00:20;;;;;;;18.90;9.80;;;;;;;2.75;100.00;99389.67;216245;1282;139952;-86
2024/03/24 00:05:21;;;;;;;27.80;11.20;;;;;;;2.82;100.00;99388.63;216370;1285;140014;-86
2024/03/24 00:10:21;;;;;;;26.10;11.40;;;;;;;2.90;100.00;99379.58;215118;1284;140680;-85
2024/03/24 00:15:22;;;;;;;29.50;11.40;;;;;;;2.96;100.00;99378.33;215624;1282;139147;-87
2024/03/24 00:20:22;;;;;;;25.60;10.30;;;;;;;3.02;100.00;99375.66;215454;1282;140122;-86
2024/03/24 00:25:23;;;;;;;22.10;10.20;;;;;;;3.04;100.00;99368.27;216445;1282;139360;-86
2024/03/24 00:30:23;;;;;;;20.40;8.90;;;;;;;3.07;100.00;99366.95;216000;1282;140697;-86
2024/03/24 00:35:24;;;;;;;20.80;8.90;;;;;;;3.07;100.00;99366.55;216199;1282;138469;-88
2024/03/24 00:40:24;;;;;;;17.30;8.70;;;;;;;3.06;100.00;99363.89;215336;1282;139326;-87
2024/03/24 00:45:25;;;;;;;19.70;8.80;;;;;;;3.03;100.00;99363.06;216476;1282;139090;-86
2024/03/24 00:50:25;;;;;;;16.60;8.10;;;;;;;3.00;100.00;99360.42;216144;1282;139645;-87
2024/03/24 00:55:26;;;;;;;16.30;8.30;;;;;;;2.95;100.00;99363.95;216919;1282;138837;-86
2024/03/24 01:00:27;;;;;;;17.30;7.60;;;;;;;2.90;100.00;99358.61;216054;1282;139621;-87
2024/03/24 01:05:28;;;;;;;13.10;6.80;;;;;;;2.83;100.00;99349.73;215834;1285;139225;-86
2024/03/24 01:10:29;;;;;;;17.20;7.50;;;;;;;2.78;100.00;99348.37;215018;1285;140774;-86
2024/03/24 01:15:29;;;;;;;17.50;7.70;;;;;;;2.72;100.00;99344.75;215626;1282;139592;-85
2024/03/24 01:20:30;;;;;;;14.80;6.90;;;;;;;2.64;100.00;99340.74;214932;1285;140254;-86
2024/03/24 01:25:31;;;;;;;16.40;7.40;;;;;;;2.58;100.00;99341.52;215545;1283;138700;-86
2024/03/24 01:30:31;;;;;;;17.10;7.00;;;;;;;2.51;100.00;99332.89;214922;1286;139842;-86
2024/03/24 01:35:32;;;;;;;16.70;7.10;;;;;;;2.45;100.00;99330.42;215413;1282;138566;-85
2024/03/24 01:40:32;;;;;;;13.60;6.90;;;;;;;2.38;100.00;99327.37;214866;1285;139883;-85
2024/03/24 01:45:33;;;;;;;17.60;7.30;;;;;;;2.33;100.00;99325.99;215371;1282;138719;-85
2024/03/24 01:50:34;;;;;;;17.80;6.70;;;;;;;2.27;100.00;99319.79;214736;1283;142377;-84
2024/03/24 01:55:34;;;;;;;21.00;7.70;;;;;;;2.22;100.00;99323.92;215788;1282;139053;-85
2024/03/24 02:00:35;;;;;;;14.00;7.10;;;;;;;2.19;100.00;99323.77;214919;1282;140484;-85
2024/03/24 02:05:35;;;;;;;16.60;7.60;;;;;;;2.19;100.00;99316.86;215330;1282;139137;-85
2024/03/24 02:10:36;;;;;;;16.80;7.70;;;;;;;2.20;100.00;99320.92;214758;1285;141935;-86
2024/03/24 02:15:36;;;;;;;14.80;7.60;;;;;;;2.24;100.00;99316.52;215310;1282;138823;-85
2024/03/24 02:20:37;;;;;;;18.60;8.20;;;;;;;2.28;100.00;99311.43;215652;1282;140239;-85
2024/03/24 02:25:37;;;;;;;22.40;9.00;;;;;;;2.32;100.00;99311.32;216380;1285;138815;-85
2024/03/24 02:30:38;;;;;;;18.80;8.50;;;;;;;2.37;100.00;99311.13;215942;1282;140155;-85
2024/03/24 02:35:41;;;;;;;22.00;8.50;;;;;;;2.43;100.00;99310.03;216134;1282;99521;-85
2024/03/24 02:40:42;;;;;;;21.10;9.70;;;;;;;2.47;100.00;99304.72;215499;1286;139202;-85
2024/03/24 02:45:42;;;;;;;20.10;9.00;;;;;;;2.52;100.00;99301.67;216537;1282;139347;-85
2024/03/24 02:50:43;;;;;;;17.90;8.80;;;;;;;2.56;100.00;99301.67;215925;1287;141303;-86
2024/03/24 02:55:47;;;;;;;20.00;9.00;;;;;;;2.58;100.00;99296.90;216528;1287;138782;-86
2024/03/24 03:00:47;;;;;;;19.20;9.50;;;;;;;2.60;100.00;99299.20;215013;1287;140100;-86
2024/03/24 03:05:48;;;;;;;19.30;9.00;;;;;;;2.61;100.00;99291.39;215693;1282;99146;-86
2024/03/24 03:10:49;;;;;;;18.60;9.50;;;;;;;2.62;100.00;99288.95;215075;1285;139339;-87
2024/03/24 03:15:50;;;;;;;19.90;9.30;;;;;;;2.62;100.00;99288.31;215497;1282;138716;-86
2024/03/24 03:20:51;;;;;;;19.50;9.70;;;;;;;2.63;100.00;99284.53;215143;1282;139995;-88
2024/03/24 03:25:51;;;;;;;19.50;8.70;;;;;;;2.62;100.00;99284.42;215441;1285;139335;-85
2024/03/24 03:30:52;;;;;;;18.80;9.00;;;;;;;2.60;100.00;99287.17;214856;1285;139926;-87
2024/03/24 03:35:53;;;;;;;21.60;10.10;;;;;;;2.57;100.00;99283.38;215634;1282;100659;-87
2024/03/24 03:40:53;;;;;;;22.80;11.80;;;;;;;2.52;100.00;99283.19;215029;1285;140016;-86
2024/03/24 03:45:54;;;;;;;20.20;10.80;;;;;;;2.50;100.00;99280.95;215696;1285;138841;-87
2024/03/24 03:50:55;;;;;;;21.70;11.10;;;;;;;2.48;100.00;99280.91;215005;1282;140432;-87
2024/03/24 03:55:55;;;;;;;23.70;11.00;;;;;;;2.47;100.00;99280.20;215816;1283;138890;-87
2024/03/24 04:00:56;;;;;;;18.10;9.00;;;;;;;2.44;100.00;99275.55;215999;1282;140105;-88
2024/03/24 04:05:58;;;;;;;19.90;10.00;;;;;;;2.44;100.00;99269.42;215507;1285;100648;-87
2024/03/24 04:10:59;;;;;;;18.40;8.70;;;;;;;2.39;100.00;99264.40;214959;1282;140114;-86
2024/03/24 04:15:59;;;;;;;21.00;8.80;;;;;;;2.37;100.00;99264.97;215445;1284;138879;-86
2024/03/24 04:21:02;;;;;;;19.60;8.90;;;;;;;2.35;100.00;99267.95;215007;1288;139772;-86
2024/03/24 04:26:03;;;;;;;20.60;8.40;;;;;;;2.34;100.00;99269.77;215474;1283;138956;-88
2024/03/24 04:31:03;;;;;;;18.20;8.70;;;;;;;2.33;100.00;99266.65;215070;1283;139512;-87
2024/03/24 04:36:04;;;;;;;17.90;8.80;;;;;;;2.32;100.00;99268.27;215415;1286;99317;-86
2024/03/24 04:41:05;;;;;;;19.50;8.90;;;;;;;2.30;100.00;99265.19;214993;1282;140161;-88
2024/03/24 04:46:05;;;;;;;19.60;9.30;;;;;;;2.28;100.00;99262.49;215543;1285;138618;-86
2024/03/24 04:51:06;;;;;;;21.00;8.70;;;;;;;2.27;100.00;99268.52;214976;1283;139826;-86
2024/03/24 04:56:06;;;;;;;20.40;8.90;;;;;;;2.26;100.00;99274.92;215368;1283;138910;-86
2024/03/24 05:01:07;;;;;;;18.30;9.60;;;;;;;2.24;100.00;99277.21;215610;1283;139947;-86
2024/03/24 05:06:08;;;;;;;21.50;9.80;;;;;;;2.25;100.00;99272.88;215676;1286;99292;-87
2024/03/24 05:11:09;;;;;;;21.00;9.60;;;;;;;2.25;100.00;99278.64;215149;1283;139900;-87
2024/03/24 05:16:10;;;;;;;25.10;10.30;;;;;;;2.24;100.00;99281.71;215441;1286;139408;-87
2024/03/24 05:21:10;;;;;;;20.90;9.60;;;;;;;2.23;100.00;99280.66;214989;1287;139922;-87
2024/03/24 05:26:11;;;;;;;24.50;10.30;;;;;;;2.21;100.00;99273.41;215634;1282;139889;-87
2024/03/24 05:31:11;;;;;;;21.60;9.60;;;;;;;2.21;100.00;99270.63;215044;1285;139850;-87
2024/03/24 05:36:12;;;;;;;20.50;9.30;;;;;;;2.22;100.00;99274.83;215696;1286;99290;-87
2024/03/24 05:41:14;;;;;;;18.50;9.00;;;;;;;2.24;100.00;99277.52;215121;1284;139832;-88
2024/03/24 05:46:14;;;;;;;20.20;9.10;;;;;;;2.27;100.00;99276.97;215554;1285;138593;-86
2024/03/24 05:51:15;;;;;;;20.00;9.60;;;;;;;2.31;100.00;99269.02;215066;1282;141045;-86
2024/03/24 05:56:16;;;;;;;19.60;9.70;;;;;;;2.34;100.00;99269.09;215659;1288;138650;-86
2024/03/24 06:01:16;;;;;;;23.30;10.40;;;;;;;2.37;100.00;99263.19;215294;1282;144019;-86
2024/03/24 06:06:19;;;;;;;21.50;9.50;;;;;;;2.43;100.00;99263.80;215830;1287;99282;-87
2024/03/24 06:11:20;;;;;;;20.90;10.80;;;;;;;2.49;100.00;99261.55;215151;1286;139783;-87
2024/03/24 06:16:20;;;;;;;21.60;10.70;;;;;;;2.54;100.00;99265.40;215681;1287;139070;-87
2024/03/24 06:21:21;;;;;;;21.60;10.60;;;;;;;2.60;100.00;99277.09;215682;1283;139883;-87
2024/03/24 06:26:21;;;;;;;17.50;9.00;;;;;;;2.66;100.00;99276.08;216700;1285;139051;-87
2024/03/24 06:31:22;;;;;;;22.30;9.60;;;;;;;2.70;100.00;99277.79;215305;1286;139634;-87
2024/03/24 06:36:22;;;;;;;22.30;11.70;;;;;;;2.74;100.00;99274.64;215879;1286;100744;-86
2024/03/24 06:41:23;;;;;;;20.70;10.00;;;;;;;2.74;100.00;99265.87;215230;1283;139941;-87
2024/03/24 06:46:23;;;;;;;19.20;9.60;;;;;;;2.80;100.00;99259.57;215679;1282;138882;-87
2024/03/24 06:51:24;;;;;;;18.40;9.10;;;;;;;2.86;100.00;99256.73;215309;1283;139982;-88
2024/03/24 06:56:24;;;;;;;21.00;9.70;;;;;;;2.97;100.00;99248.38;215679;1285;138886;-89
2024/03/24 07:01:25;;;;;;;18.90;10.70;;;;;;;3.01;100.00;99250.11;215397;1285;140196;-86
2024/03/24 07:06:26;;;;;;;21.50;10.40;;;;;;;3.08;100.00;99249.48;217007;1286;100665;-89
2024/03/24 07:11:26;;;;;;;20.40;9.30;;;;;;;3.17;100.00;99258.77;215273;1287;140948;-88
2024/03/24 07:16:27;;;;;;;22.00;8.90;;;;;;;3.21;100.00;99271.28;215807;1283;139016;-89
2024/03/24 07:21:27;;;;;;;18.00;8.50;;;;;;;3.29;100.00;99277.13;215336;1283;140193;-88
2024/03/24 07:26:28;;;;;;;15.80;8.90;;;;;;;3.36;100.00;99270.66;215910;1282;138793;-90
2024/03/24 07:31:29;;;;;;;18.90;9.70;;;;;;;3.43;100.00;99279.36;215314;1287;139656;-90
2024/03/24 07:36:29;;;;;;;18.40;9.60;;;;;;;3.53;100.00;99277.70;215856;1282;97991;-89
2024/03/24 07:41:30;;;;;;;20.40;9.70;;;;;;;3.67;100.00;99275.02;215073;1286;139358;-91
2024/03/24 07:46:30;;;;;;;14.70;8.70;;;;;;;3.83;100.00;99279.92;215896;1283;138754;-90
2024/03/24 07:51:31;;;;;;;22.30;10.10;;;;;;;4.02;100.00;99275.15;215350;1282;139660;-91
2024/03/24 07:56:33;;;;;;;19.40;10.00;;;;;;;4.22;100.00;99275.35;215777;1285;140042;-91
2024/03/24 08:01:33;;;;;;;17.10;10.00;;;;;;;4.37;100.00;99269.09;215288;1283;140751;-93
2024/03/24 08:06:34;;;;;;;17.70;10.30;;;;;;;4.56;100.00;99274.39;217141;1283;99554;-88
2024/03/24 08:11:35;;;;;;;18.10;9.80;;;;;;;4.68;100.00;99271.07;215315;1286;140083;-91
2024/03/24 08:16:35;;;;;;;19.60;10.00;;;;;;;4.79;100.00;99271.71;215589;1283;140269;-90
2024/03/24 08:21:36;;;;;;;17.80;9.90;;;;;;;4.92;100.00;99273.94;215437;1283;140512;-89
2024/03/24 08:26:36;;;;;;;15.60;8.80;;;;;;;5.02;100.00;99272.14;215843;1283;138886;-90
2024/03/24 08:31:37;;;;;;;16.00;9.00;;;;;;;5.08;100.00;99272.60;215261;1283;140851;-90
2024/03/24 08:36:37;;;;;;;18.30;10.60;;;;;;;5.10;100.00;99272.95;216201;1283;139356;-90
2024/03/24 08:41:39;;;;;;;18.70;12.10;;;;;;;5.11;100.00;99270.63;215541;1282;140135;-90
2024/03/24 08:46:40;;;;;;;19.30;10.60;;;;;;;5.25;100.00;99263.27;215901;1282;139594;-88
2024/03/24 08:51:42;;;;;;;19.10;10.60;;;;;;;5.53;100.00;99263.30;215374;1283;140003;-89
2024/03/24 08:56:43;;;;;;;18.90;9.30;;;;;;;5.70;100.00;99259.46;215694;1282;139015;-90
2024/03/24 09:01:43;;;;;;;18.00;9.50;;;;;;;5.87;100.00;99254.06;215208;1285;139354;-90
2024/03/24 09:06:44;;;;;;;16.10;8.30;;;;;;;6.01;100.00;99248.30;217186;1282;138818;-87
2024/03/24 09:11:45;;;;;;;18.40;9.30;;;;;;;6.24;100.00;99245.86;215351;1283;139841;-89
2024/03/24 09:16:45;;;;;;;17.10;9.30;;;;;;;6.61;100.00;99247.19;215734;1283;138637;-88
2024/03/24 09:21:46;;;;;;;15.30;8.30;;;;;;;6.92;100.00;99239.05;215155;1282;141332;-88
2024/03/24 09:26:49;;;;;;;14.90;8.60;;;;;;;7.26;100.00;99242.38;215708;1282;139104;-88
2024/03/24 09:31:49;;;;;;;13.50;7.60;;;;;;;7.64;100.00;99231.05;214947;1288;141652;-91
2024/03/24 09:36:51;;;;;;;16.00;9.10;;;;;;;7.86;100.00;99232.14;215736;1282;138978;-87
2024/03/24 09:41:53;;;;;;;10.00;6.50;;;;;;;8.15;100.00;99226.10;215257;1283;139800;-87
2024/03/24 09:46:58;;;;;;;13.60;6.10;;;;;;;8.21;100.00;99218.92;215755;1286;138615;-87
2024/03/24 09:52:01;;;;;;;14.30;6.60;;;;;;;8.07;100.00;99219.73;215056;1283;140027;-86
2024/03/24 09:57:01;;;;;;;15.30;7.20;;;;;;;8.01;100.00;99219.89;215455;1282;311546;-88
2024/03/24 10:02:03;;;;;;;11.80;5.80;;;;;;;7.94;100.00;99219.09;215175;1288;140087;-86
2024/03/24 10:07:04;;;;;;;17.00;8.10;;;;;;;7.90;100.00;99213.38;217193;1285;138254;-84
2024/03/24 10:12:13;;;;;;;11.60;6.80;;;;;;;7.78;100.00;99208.80;215455;1286;139569;-90
2024/03/24 10:17:19;;;;;;;11.60;5.80;;;;;;;7.58;100.00;99205.45;215608;1283;138974;-86
2024/03/24 10:22:20;;;;;;;13.40;6.90;;;;;;;7.60;100.00;99203.74;215161;1282;140449;-85
2024/03/24 10:27:24;;;;;;;55.20;50.10;;;;;;;7.74;100.00;99201.35;215483;1283;138838;-87
2024/03/24 10:32:25;;;;;;;16.10;13.10;;;;;;;7.84;100.00;99191.91;215019;1282;140697;-86
2024/03/24 10:37:27;;;;;;;10.40;6.00;;;;;;;7.86;100.00;99189.96;215442;1283;138990;-87
2024/03/24 10:42:30;;;;;;;14.00;8.60;;;;;;;7.95;100.00;99187.40;215128;1283;139636;-92
2024/03/24 10:47:32;;;;;;;13.90;7.30;;;;;;;7.92;100.00;99180.34;215482;1282;138320;-85
2024/03/24 10:52:40;;;;;;;15.50;6.40;;;;;;;7.99;100.00;99182.39;215142;1287;139750;-83
2024/03/24 10:57:41;;;;;;;11.10;6.20;;;;;;;8.02;100.00;99180.52;215392;1283;138741;-85
2024/03/24 11:02:43;;;;;;;17.70;14.00;;;;;;;7.91;100.00;99177.53;214991;1286;140144;-85
2024/03/24 11:07:43;;;;;;;9.80;5.30;;;;;;;7.77;100.00;99174.52;216606;1283;138067;-84
2024/03/24 11:12:46;;;;;;;34.40;28.70;;;;;;;7.82;100.00;99173.29;215608;1283;139234;-85
2024/03/24 11:17:46;;;;;;;12.00;5.70;;;;;;;7.95;100.00;99159.45;216041;1283;100645;-86
2024/03/24 11:22:50;;;;;;;12.40;5.50;;;;;;;8.16;100.00;99160.95;215424;1283;139344;-85
2024/03/24 11:27:51;;;;;;;14.00;5.50;;;;;;;8.30;100.00;99154.48;215702;1286;139884;-87
2024/03/24 11:32:58;;;;;;;18.30;6.20;;;;;;;8.47;99.92;99161.29;215039;1282;141491;-85
2024/03/24 11:38:00;;;;;;;9.00;5.40;;;;;;;8.52;99.19;99155.57;215676;1283;138654;-86
2024/03/24 11:43:02;;;;;;;12.80;5.40;;;;;;;8.53;99.39;99155.65;214858;1282;139675;-86
2024/03/24 11:48:19;;;;;;;11.10;5.30;;;;;;;8.54;99.54;99152.90;215673;1282;99747;-84
2024/03/24 11:53:22;;;;;;;13.00;5.00;;;;;;;8.58;99.46;99142.24;215193;1283;139190;-85
2024/03/24 11:58:22;;;;;;;16.00;5.90;;;;;;;8.62;99.54;99142.31;214979;1282;139450;-83
2024/03/24 12:03:23;;;;;;;10.90;4.70;;;;;;;8.68;99.58;99138.54;215697;1282;138506;-86
2024/03/24 12:08:26;;;;;;;9.60;4.50;;;;;;;8.70;98.92;99141.20;216306;1282;139279;-83
2024/03/24 12:13:27;;;;;;;12.50;4.80;;;;;;;8.72;97.76;99132.18;216192;1282;138665;-86
2024/03/24 12:18:27;;;;;;;7.70;4.00;;;;;;;8.66;95.79;99130.86;215625;1283;141141;-83
2024/03/24 12:23:29;;;;;;;8.90;4.20;;;;;;;8.65;97.30;99123.11;219370;1282;139939;-84
2024/03/24 12:28:30;;;;;;;10.90;4.20;;;;;;;8.66;95.75;99125.14;215436;1285;139561;-82
2024/03/24 12:33:30;;;;;;;7.40;3.40;;;;;;;8.62;96.26;99117.15;215969;1285;139856;-82
2024/03/24 12:38:31;;;;;;;6.90;3.70;;;;;;;8.66;97.41;99107.66;215652;1285;140128;-84
2024/03/24 12:43:32;;;;;;;9.20;3.50;;;;;;;8.71;95.41;99095.67;216123;1282;138509;-83
2024/03/24 12:48:32;;;;;;;7.60;3.80;;;;;;;8.71;97.47;99089.09;215791;1282;141336;-83
2024/03/24 12:53:44;;;;;;;9.10;3.70;;;;;;;8.77;96.78;99083.73;216242;1282;139056;-83
2024/03/24 12:58:47;;;;;;;7.20;3.30;;;;;;;8.70;96.98;99075.85;215690;1285;140015;-84
2024/03/24 13:03:47;;;;;;;11.50;3.80;;;;;;;8.66;99.36;99074.05;216450;1282;138797;-84
2024/03/24 13:08:49;;;;;;;7.80;4.10;;;;;;;8.67;99.67;99071.23;216586;1282;140161;-83
2024/03/24 13:13:50;;;;;;;7.80;3.70;;;;;;;8.54;97.23;99072.91;217169;1285;139016;-87
2024/03/24 13:19:36;;;;;;;7.90;3.70;;;;;;;8.37;99.22;99070.29;215499;1285;140056;-85
2024/03/24 13:24:47;;;;;;;7.20;3.70;;;;;;;8.27;99.29;99073.91;214271;1290;99440;-89
2024/03/24 13:29:48;;;;;;;8.50;3.40;;;;;;;8.17;99.94;99063.58;215068;1282;139186;-87
2024/03/24 13:34:49;;;;;;;8.00;3.30;;;;;;;8.23;99.51;99058.95;215815;1282;138221;-86
2024/03/24 13:39:56;;;;;;;9.10;3.40;;;;;;;8.31;98.31;99049.55;215279;1281;140228;-86
2024/03/24 13:45:16;;;;;;;7.70;3.60;;;;;;;8.29;97.53;99053.85;215873;1284;138419;-87
2024/03/24 13:50:17;;;;;;;146.60;123.40;;;;;;;8.16;97.60;99066.23;215687;1282;139930;-88
2024/03/24 13:55:17;;;;;;;6.30;2.10;;;;;;;7.52;98.18;99093.34;215692;1285;139087;-88
2024/03/24 14:00:18;;;;;;;5.30;2.50;;;;;;;6.79;100.00;99086.80;215248;1283;139625;-86
2024/03/24 14:05:19;;;;;;;6.60;2.60;;;;;;;6.57;100.00;99070.44;215757;1287;138331;-87
2024/03/24 14:10:20;;;;;;;8.90;3.90;;;;;;;6.45;100.00;99057.11;216475;1282;139499;-87
2024/03/24 14:15:57;;;;;;;8.70;3.10;;;;;;;6.42;100.00;99061.46;216353;1285;139415;-89
2024/03/24 14:21:03;;;;;;;8.30;3.70;;;;;;;6.40;100.00;99049.03;215205;1283;142000;-88
2024/03/24 14:26:04;;;;;;;9.50;4.40;;;;;;;6.51;100.00;99040.89;215245;1283;138745;-90
2024/03/24 14:31:05;;;;;;;9.00;3.70;;;;;;;6.61;100.00;99024.01;215155;1281;141657;-89
2024/03/24 14:36:20;;;;;;;8.40;4.10;;;;;;;6.71;100.00;99019.67;215339;1282;99292;-88
2024/03/24 14:41:43;;;;;;;8.80;4.30;;;;;;;6.85;100.00;99013.38;215291;1282;139242;-88
2024/03/24 14:47:20;;;;;;;10.40;4.30;;;;;;;6.97;100.00;99014.04;216435;1282;139140;-87
2024/03/24 14:52:21;;;;;;;10.10;4.10;;;;;;;7.08;100.00;99009.85;216473;1282;139920;-88
2024/03/24 14:57:22;;;;;;;8.40;4.30;;;;;;;7.22;100.00;99011.44;216647;1282;138743;-86
2024/03/24 15:02:23;;;;;;;9.90;3.80;;;;;;;7.30;100.00;99013.10;215312;1284;139636;-88
2024/03/24 15:07:24;;;;;;;8.40;3.40;;;;;;;7.35;100.00;99018.19;215766;1285;138534;-89
2024/03/24 15:12:24;;;;;;;8.50;3.50;;;;;;;7.34;100.00;99015.83;217349;1282;139398;-88
2024/03/24 15:17:25;;;;;;;8.20;3.40;;;;;;;7.34;100.00;99014.98;215102;1282;138773;-88
2024/03/24 15:22:26;;;;;;;8.10;3.50;;;;;;;7.33;100.00;99014.04;214681;1282;139376;-89
2024/03/24 15:27:27;;;;;;;6.80;3.20;;;;;;;7.33;100.00;99014.05;215204;1282;138691;-88
2024/03/24 15:32:28;;;;;;;6.10;2.90;;;;;;;7.27;100.00;99015.35;214619;1282;139202;-87
2024/03/24 15:37:28;;;;;;;10.40;4.00;;;;;;;7.24;100.00;99017.23;215163;1283;138653;-87
2024/03/24 15:42:30;;;;;;;8.30;3.90;;;;;;;7.15;100.00;99020.19;214854;1282;139617;-87
2024/03/24 15:47:35;;;;;;;10.50;3.30;;;;;;;7.03;100.00;99019.77;215284;1282;138380;-88
2024/03/24 15:52:36;;;;;;;6.30;3.10;;;;;;;6.91;100.00;99009.73;214999;1282;139809;-86
2024/03/24 15:57:52;;;;;;;12.80;4.90;;;;;;;6.85;100.00;99010.17;215371;1283;139490;-87
2024/03/24 16:02:54;;;;;;;10.80;4.30;;;;;;;6.76;100.00;99008.83;214880;1284;139355;-88
2024/03/24 16:07:54;;;;;;;10.90;4.60;;;;;;;6.67;100.00;99003.32;215849;1282;139075;-86
2024/03/24 16:13:17;;;;;;;8.40;3.50;;;;;;;6.63;100.00;98996.90;217166;1281;140061;-89
2024/03/24 16:18:17;;;;;;;10.70;4.50;;;;;;;6.61;100.00;98996.12;215407;1282;107766;-87
2024/03/24 16:23:18;;;;;;;11.00;4.20;;;;;;;6.55;100.00;98992.27;214900;1284;139537;-89
2024/03/24 16:28:19;;;;;;;12.90;5.50;;;;;;;6.51;100.00;98995.06;215324;1282;138717;-88
2024/03/24 16:33:27;;;;;;;10.70;5.40;;;;;;;6.48;100.00;98989.27;214791;1282;138696;-88
2024/03/24 16:38:27;;;;;;;9.30;3.90;;;;;;;6.42;100.00;98986.44;215158;1282;144798;-87
2024/03/24 16:43:28;;;;;;;8.80;4.40;;;;;;;6.37;100.00;98985.31;215547;1282;142529;-89
2024/03/24 16:48:28;;;;;;;11.10;4.90;;;;;;;6.32;100.00;98986.77;214997;1283;140065;-86
2024/03/24 16:53:29;;;;;;;10.70;5.40;;;;;;;6.25;100.00;98985.27;215118;1285;139208;-89
2024/03/24 16:58:31;;;;;;;12.70;6.20;;;;;;;6.19;100.00;98989.84;214849;1281;140320;-88
2024/03/24 17:03:33;;;;;;;14.80;6.00;;;;;;;6.14;100.00;98989.35;215271;1282;138819;-86
2024/03/24 17:08:33;;;;;;;13.50;6.60;;;;;;;6.13;100.00;98991.76;214696;1283;140945;-89
2024/03/24 17:13:34;;;;;;;16.20;7.10;;;;;;;6.11;100.00;98998.22;217939;1282;137660;-88
2024/03/24 17:18:35;;;;;;;15.40;6.30;;;;;;;6.09;100.00;99008.66;215252;1284;139786;-90
2024/03/24 17:23:37;;;;;;;10.10;4.10;;;;;;;6.09;100.00;99013.41;216524;1283;138869;-86
2024/03/24 17:28:38;;;;;;;12.00;4.60;;;;;;;6.06;100.00;99011.23;214670;1282;141071;-87
2024/03/24 17:33:39;;;;;;;13.30;5.60;;;;;;;6.01;100.00;99007.05;215306;1282;138824;-86
2024/03/24 17:38:40;;;;;;;8.20;4.00;;;;;;;5.98;100.00;99007.82;215077;1286;139589;-85
2024/03/24 17:43:40;;;;;;;6.40;2.60;;;;;;;5.90;100.00;99003.32;215488;1283;138531;-87
2024/03/24 17:48:41;;;;;;;7.60;3.90;;;;;;;5.83;100.00;99003.10;215066;1282;139945;-86
2024/03/24 17:53:41;;;;;;;8.40;4.00;;;;;;;5.78;100.00;99004.92;215662;1282;138046;-89
2024/03/24 17:58:43;;;;;;;8.40;3.80;;;;;;;5.72;100.00;99000.82;214815;1282;139444;-90
2024/03/24 18:03:43;;;;;;;14.70;6.70;;;;;;;5.66;100.00;98998.35;215442;1285;138479;-88
2024/03/24 18:14:03;;;;;;;17.60;7.50;;;;;;;5.53;100.00;98994.27;217579;1281;137598;-88
2024/03/24 18:19:03;;;;;;;18.20;7.90;;;;;;;5.47;100.00;98995.94;214963;1285;141058;-89
2024/03/24 18:24:05;;;;;;;15.80;8.00;;;;;;;5.44;100.00;98998.73;215697;1282;99302;-88
2024/03/24 18:29:05;;;;;;;18.60;8.80;;;;;;;5.40;100.00;98995.95;215545;1282;139881;-86
2024/03/24 18:34:06;;;;;;;19.80;9.20;;;;;;;5.37;100.00;99000.99;215490;1282;138860;-88
2024/03/24 18:39:07;;;;;;;20.60;11.30;;;;;;;5.33;100.00;99003.85;215029;1282;140176;-90
2024/03/24 18:44:09;;;;;;;19.90;10.50;;;;;;;5.30;100.00;99002.41;215639;1286;138867;-88
2024/03/24 18:49:09;;;;;;;17.50;9.40;;;;;;;5.27;100.00;98998.26;215105;1282;141612;-89
2024/03/24 18:54:10;;;;;;;19.10;8.60;;;;;;;5.24;100.00;98998.23;215818;1283;106676;-91
2024/03/24 18:59:10;;;;;;;23.20;10.50;;;;;;;5.24;100.00;98996.60;214758;1283;139537;-88
2024/03/24 19:04:13;;;;;;;16.80;8.30;;;;;;;5.24;100.00;98996.91;215694;1284;138689;-88
2024/03/24 19:09:14;;;;;;;21.20;8.50;;;;;;;5.26;100.00;99000.90;214700;1285;140609;-87
2024/03/24 19:14:15;;;;;;;16.60;7.70;;;;;;;5.26;100.00;98995.30;217184;1282;138602;-88
2024/03/24 19:19:16;;;;;;;15.30;8.50;;;;;;;5.28;100.00;98995.06;215200;1284;140811;-86
2024/03/24 19:24:16;;;;;;;18.00;9.20;;;;;;;5.29;100.00;98989.63;215375;1282;99274;-87
2024/03/24 19:29:18;;;;;;;17.20;8.80;;;;;;;5.31;100.00;98989.73;214921;1282;139854;-87
2024/03/24 19:34:18;;;;;;;17.80;9.00;;;;;;;5.33;100.00;98986.47;215708;1285;139004;-88
2024/03/24 19:39:19;;;;;;;18.00;9.50;;;;;;;5.35;100.00;98986.72;214930;1282;139902;-87
2024/03/24 19:44:19;;;;;;;17.10;9.50;;;;;;;5.37;100.00;98989.23;215814;1282;138739;-87
2024/03/24 19:49:20;;;;;;;19.50;9.80;;;;;;;5.39;100.00;98984.80;215171;1282;140602;-87
2024/03/24 19:54:22;;;;;;;17.80;9.00;;;;;;;5.40;100.00;98985.98;215743;1282;107466;-88
2024/03/24 19:59:22;;;;;;;16.70;8.20;;;;;;;5.40;100.00;98984.11;215443;1282;140103;-89
2024/03/24 20:04:23;;;;;;;19.50;9.60;;;;;;;5.39;100.00;98979.66;216056;1287;138696;-88
2024/03/24 20:09:24;;;;;;;21.50;9.40;;;;;;;5.39;100.00;98977.55;215124;1282;140024;-89
2024/03/24 20:14:24;;;;;;;18.00;9.80;;;;;;;5.38;100.00;98974.12;217108;1281;138140;-91
2024/03/24 20:19:25;;;;;;;18.10;9.10;;;;;;;5.37;100.00;98978.64;216654;1282;139959;-89
2024/03/24 20:24:25;;;;;;;16.20;9.10;;;;;;;5.36;100.00;98973.86;215981;1284;98934;-92
2024/03/24 20:29:26;;;;;;;16.50;9.20;;;;;;;5.35;100.00;98973.62;215303;1282;138793;-86
2024/03/24 20:34:27;;;;;;;16.40;8.70;;;;;;;5.33;100.00;98968.31;215802;1285;138665;-87
2024/03/24 20:39:28;;;;;;;17.60;8.60;;;;;;;5.31;100.00;98963.55;215316;1282;139887;-88
2024/03/24 20:44:29;;;;;;;15.70;8.30;;;;;;;5.28;100.00;98955.48;215693;1285;138973;-86
2024/03/24 20:49:29;;;;;;;22.60;11.40;;;;;;;5.26;100.00;98955.15;215931;1285;140513;-88
2024/03/24 20:54:30;;;;;;;19.00;9.20;;;;;;;5.23;100.00;98951.47;216577;1282;97922;-88
2024/03/24 20:59:30;;;;;;;17.60;8.20;;;;;;;5.21;100.00;98950.91;216121;1285;140103;-86
2024/03/24 21:04:31;;;;;;;13.90;7.90;;;;;;;5.20;100.00;98943.11;216687;1282;139045;-89
2024/03/24 21:09:31;;;;;;;15.00;8.50;;;;;;;5.21;100.00;98935.64;215731;1284;140058;-87
2024/03/24 21:14:35;;;;;;;17.80;8.50;;;;;;;5.22;100.00;98929.02;216175;1282;138830;-86
2024/03/24 21:19:36;;;;;;;16.00;8.50;;;;;;;5.20;100.00;98922.63;216921;1285;139787;-87
2024/03/24 21:24:37;;;;;;;14.80;7.50;;;;;;;5.23;100.00;98919.30;216188;1282;99656;-91
2024/03/24 21:29:37;;;;;;;18.70;10.00;;;;;;;5.25;100.00;98921.87;215186;1283;139311;-88
2024/03/24 21:34:38;;;;;;;14.00;7.70;;;;;;;5.20;100.00;98919.42;215809;1287;138750;-90
2024/03/24 21:44:58;;;;;;;15.70;8.10;;;;;;;5.15;100.00;98918.77;215568;1286;138889;-88
2024/03/24 21:49:59;;;;;;;20.30;9.20;;;;;;;5.16;100.00;98911.98;215260;1282;140557;-90
2024/03/24 21:54:59;;;;;;;19.20;9.80;;;;;;;5.15;100.00;98904.89;215613;1285;337072;-88
2024/03/24 22:00:00;;;;;;;21.60;10.00;;;;;;;5.14;100.00;98904.41;216084;1282;139711;-88
2024/03/24 22:05:00;;;;;;;18.70;10.40;;;;;;;5.14;100.00;98901.91;217144;1284;139090;-88
2024/03/24 22:10:01;;;;;;;19.00;10.80;;;;;;;5.13;100.00;98901.45;215997;1282;139966;-87
2024/03/24 22:15:02;;;;;;;19.40;9.80;;;;;;;5.11;100.00;98901.91;215873;1282;139603;-86
2024/03/24 22:20:03;;;;;;;20.70;10.90;;;;;;;5.09;100.00;98896.90;217291;1282;139807;-86
2024/03/24 22:25:04;;;;;;;21.40;11.20;;;;;;;5.05;100.00;98894.06;215656;1282;139900;-86
2024/03/24 22:30:06;;;;;;;21.30;10.80;;;;;;;5.01;100.00;98891.99;215765;1285;140308;-83
2024/03/24 22:35:07;;;;;;;20.20;10.20;;;;;;;4.98;100.00;98890.11;216757;1285;139142;-84
2024/03/24 22:40:08;;;;;;;18.60;10.20;;;;;;;4.93;100.00;98883.69;216153;1286;139653;-84
2024/03/24 22:45:08;;;;;;;18.40;10.00;;;;;;;4.92;100.00;98879.86;216957;1282;138986;-84
2024/03/24 22:50:09;;;;;;;18.80;9.60;;;;;;;4.92;100.00;98878.91;216245;1282;140281;-84
2024/03/24 22:55:09;;;;;;;17.90;9.80;;;;;;;4.90;100.00;98877.58;216222;1282;141302;-86
2024/03/24 23:00:16;;;;;;;19.00;10.00;;;;;;;4.90;100.00;98878.35;215724;1282;140004;-86